createdAt,value
2022-07-26T00:01:36.801Z,18.70
2022-07-26T00:05:38.819Z,17.92
2022-07-26T00:09:43.762Z,17.25
2022-07-26T00:13:48.300Z,18.70
2022-07-26T00:17:49.744Z,17.08
2022-07-26T00:22:11.183Z,14.82
2022-07-26T00:26:12.682Z,14.10
2022-07-26T00:30:14.375Z,15.57
2022-07-26T00:34:15.811Z,14.48
2022-07-26T00:38:18.228Z,15.85
2022-07-26T00:42:20.016Z,14.68
2022-07-26T00:46:21.548Z,13.52
2022-07-26T00:50:23.040Z,12.10
2022-07-26T00:54:24.677Z,12.48
2022-07-26T00:58:26.141Z,16.42
2022-07-26T01:02:27.672Z,18.40
2022-07-26T01:06:29.251Z,16.45
2022-07-26T01:10:30.759Z,15.20
2022-07-26T01:14:32.257Z,16.77
2022-07-26T01:18:33.709Z,15.98
2022-07-26T01:22:35.529Z,14.52
2022-07-26T01:26:37.034Z,15.10
2022-07-26T01:30:38.703Z,14.27
2022-07-26T01:34:40.238Z,13.88
2022-07-26T01:38:42.276Z,11.75
2022-07-26T01:42:43.757Z,12.50
2022-07-26T01:46:45.213Z,13.32
2022-07-26T01:50:46.765Z,13.80
2022-07-26T01:54:48.248Z,12.45
2022-07-26T01:58:50.089Z,11.93
2022-07-26T02:02:51.666Z,13.43
2022-07-26T02:06:53.267Z,13.70
2022-07-26T02:11:03.355Z,11.45
2022-07-26T02:15:07.213Z,12.98
2022-07-26T02:19:09.667Z,14.60
2022-07-26T02:23:11.368Z,14.45
2022-07-26T02:27:12.878Z,13.15
2022-07-26T02:31:15.507Z,12.27
2022-07-26T02:35:17.295Z,12.93
2022-07-26T02:39:19.433Z,10.55
2022-07-26T02:43:20.911Z,12.27
2022-07-26T02:47:22.361Z,12.88
2022-07-26T02:51:23.811Z,14.57
2022-07-26T02:55:26.647Z,11.50
2022-07-26T02:59:28.114Z,13.55
2022-07-26T03:03:29.563Z,11.85
2022-07-26T03:07:31.461Z,14.05
2022-07-26T03:11:32.902Z,17.60
2022-07-26T03:15:34.626Z,14.50
2022-07-26T03:19:36.184Z,13.55
2022-07-26T03:23:37.750Z,11.70
2022-07-26T03:27:39.171Z,13.40
2022-07-26T03:31:40.711Z,12.93
2022-07-26T03:35:42.242Z,18.00
2022-07-26T03:39:46.147Z,15.85
2022-07-26T03:43:47.623Z,12.23
2022-07-26T03:47:49.144Z,13.60
2022-07-26T03:51:50.602Z,13.25
2022-07-26T03:56:11.169Z,19.95
2022-07-26T04:00:12.835Z,10.73
2022-07-26T04:04:17.730Z,11.90
2022-07-26T04:08:19.314Z,10.90
2022-07-26T04:12:20.792Z,15.38
2022-07-26T04:16:22.371Z,14.38
2022-07-26T04:20:24.003Z,15.07
2022-07-26T04:24:25.821Z,15.00
2022-07-26T04:28:28.938Z,12.20
2022-07-26T04:32:30.444Z,12.93
2022-07-26T04:36:31.902Z,12.35
2022-07-26T04:40:33.660Z,15.13
2022-07-26T04:44:35.135Z,13.43
2022-07-26T04:48:37.682Z,12.23
2022-07-26T04:52:39.967Z,15.07
2022-07-26T04:56:41.615Z,16.83
2022-07-26T05:01:08.445Z,19.35
2022-07-26T05:05:06.432Z,11.48
2022-07-26T05:09:08.890Z,17.02
2022-07-26T05:13:10.351Z,14.20
2022-07-26T05:17:12.131Z,11.20
2022-07-26T05:21:13.916Z,16.58
2022-07-26T05:25:15.412Z,11.40
2022-07-26T05:29:17.100Z,12.80
2022-07-26T05:33:18.651Z,11.60
2022-07-26T05:37:20.215Z,11.77
2022-07-26T05:41:22.432Z,10.52
2022-07-26T05:45:23.920Z,11.27
2022-07-26T05:49:26.026Z,10.30
2022-07-26T05:53:27.592Z,9.25
2022-07-26T05:57:29.118Z,7.70
2022-07-26T06:01:32.577Z,7.90
2022-07-26T06:05:34.410Z,7.13
2022-07-26T06:09:35.919Z,9.52
2022-07-26T06:13:37.410Z,8.23
2022-07-26T06:17:41.164Z,8.55
2022-07-26T06:21:42.781Z,5.78
2022-07-26T06:25:44.281Z,6.15
2022-07-26T06:29:48.477Z,7.65
2022-07-26T06:33:51.363Z,9.13
2022-07-26T06:37:52.802Z,8.40
2022-07-26T06:41:54.283Z,7.22
2022-07-26T06:45:55.802Z,3.38
2022-07-26T06:49:57.348Z,5.75
2022-07-26T06:53:58.894Z,7.13
2022-07-26T06:58:02.648Z,13.05
2022-07-26T07:02:04.683Z,7.43
2022-07-26T07:06:06.429Z,7.47
2022-07-26T07:10:09.146Z,6.93
2022-07-26T07:14:10.817Z,4.93
2022-07-26T07:18:12.528Z,6.00
2022-07-26T07:22:14.438Z,5.85
2022-07-26T07:26:15.878Z,7.25
2022-07-26T07:30:17.693Z,4.00
2022-07-26T07:34:22.667Z,4.63
2022-07-26T07:38:25.374Z,5.43
2022-07-26T07:42:26.836Z,10.45
2022-07-26T07:46:28.347Z,8.27
2022-07-26T07:50:29.971Z,8.75
2022-07-26T07:54:31.417Z,4.65
2022-07-26T07:58:34.249Z,4.22
2022-07-26T08:02:35.717Z,5.00
2022-07-26T08:06:37.208Z,4.45
2022-07-26T08:10:41.884Z,5.13
2022-07-26T08:14:53.646Z,3.83
2022-07-26T08:18:57.957Z,6.50
2022-07-26T08:22:59.814Z,4.35
2022-07-26T08:27:03.737Z,7.80
2022-07-26T08:31:05.707Z,8.55
2022-07-26T08:35:17.342Z,3.75
2022-07-26T08:39:21.378Z,5.90
2022-07-26T08:43:22.846Z,3.40
2022-07-26T08:47:39.890Z,5.05
2022-07-26T08:51:44.812Z,3.15
2022-07-26T09:00:26.947Z,5.47
2022-07-26T09:04:32.932Z,5.95
2022-07-26T09:08:37.152Z,6.00
2022-07-26T09:12:39.752Z,4.97
2022-07-26T09:16:43.016Z,4.63
2022-07-26T09:20:47.159Z,4.40
2022-07-26T09:24:49.697Z,2.75
2022-07-26T09:29:13.106Z,4.93
2022-07-26T09:33:15.053Z,1.40
2022-07-26T09:37:17.278Z,3.60
2022-07-26T09:41:30.207Z,2.83
2022-07-26T09:45:36.002Z,2.38
2022-07-26T09:49:40.690Z,3.00
2022-07-26T09:53:45.720Z,3.97
2022-07-26T09:57:47.662Z,4.07
2022-07-26T10:01:51.281Z,3.50
2022-07-26T10:05:53.081Z,6.78
2022-07-26T10:10:03.545Z,1.88
2022-07-26T10:14:32.894Z,6.03
2022-07-26T10:18:38.066Z,5.38
2022-07-26T10:22:45.785Z,1.73
2022-07-26T10:26:48.447Z,5.70
2022-07-26T10:30:50.058Z,5.25
2022-07-26T10:34:51.571Z,8.85
2022-07-26T10:39:06.988Z,2.92
2022-07-26T10:43:39.489Z,5.07
2022-07-26T10:47:35.253Z,3.78
2022-07-26T10:51:41.084Z,6.63
2022-07-26T10:55:47.665Z,4.43
2022-07-26T10:59:56.838Z,4.63
2022-07-26T11:03:58.620Z,2.90
2022-07-26T11:08:17.806Z,3.38
2022-07-26T11:16:23.331Z,5.15
2022-07-26T11:20:29.603Z,4.40
2022-07-26T11:24:31.821Z,4.95
2022-07-26T11:28:50.292Z,3.90
2022-07-26T11:32:56.045Z,1.20
2022-07-26T11:36:59.309Z,4.60
2022-07-26T11:41:00.840Z,6.28
2022-07-26T11:45:02.380Z,2.35
2022-07-26T11:49:06.251Z,6.03
2022-07-26T11:53:21.296Z,5.70
2022-07-26T11:57:29.123Z,5.43
2022-07-26T12:01:30.874Z,2.85
2022-07-26T12:05:33.317Z,7.05
2022-07-26T12:09:39.211Z,7.78
2022-07-26T12:14:00.366Z,3.00
2022-07-26T12:18:02.010Z,3.50
2022-07-26T12:22:14.282Z,4.60
2022-07-26T12:26:34.885Z,3.80
2022-07-26T12:30:40.114Z,1.95
2022-07-26T12:34:54.047Z,6.90
2022-07-26T12:38:59.683Z,6.82
2022-07-26T12:43:02.874Z,4.65
2022-07-26T12:47:05.716Z,2.72
2022-07-26T12:51:07.421Z,2.40
2022-07-26T12:55:13.921Z,6.43
2022-07-26T12:59:17.623Z,2.47
2022-07-26T13:03:19.628Z,1.88
2022-07-26T13:07:21.272Z,2.08
2022-07-26T13:11:22.784Z,1.40
2022-07-26T13:15:24.266Z,3.20
2022-07-26T13:19:38.822Z,1.45
2022-07-26T13:23:40.368Z,2.88
2022-07-26T13:27:44.745Z,1.65
2022-07-26T13:31:47.015Z,0.93
2022-07-26T13:35:50.207Z,1.77
2022-07-26T13:39:52.046Z,2.53
2022-07-26T13:43:54.097Z,1.20
2022-07-26T13:47:55.551Z,1.30
2022-07-26T13:51:57.678Z,2.08
2022-07-26T13:55:59.166Z,3.78
2022-07-26T14:00:00.662Z,0.98
2022-07-26T14:04:03.614Z,1.88
2022-07-26T14:08:06.005Z,1.20
2022-07-26T14:12:07.685Z,4.90
2022-07-26T14:16:10.203Z,1.33
2022-07-26T14:20:11.812Z,1.35
2022-07-26T14:24:13.705Z,1.50
2022-07-26T14:28:15.349Z,2.58
2022-07-26T14:32:21.526Z,1.02
2022-07-26T14:36:23.772Z,1.45
2022-07-26T14:40:25.400Z,2.88
2022-07-26T14:44:27.295Z,1.95
2022-07-26T14:48:52.928Z,4.18
2022-07-26T14:52:50.784Z,1.52
2022-07-26T14:56:52.304Z,1.92
2022-07-26T15:00:54.003Z,3.33
2022-07-26T15:04:55.566Z,2.00
2022-07-26T15:08:57.148Z,1.95
2022-07-26T15:13:00.142Z,1.25
2022-07-26T15:17:01.693Z,3.97
2022-07-26T15:21:03.416Z,1.45
2022-07-26T15:25:05.567Z,3.88
2022-07-26T15:29:07.088Z,1.85
2022-07-26T15:33:08.625Z,2.42
2022-07-26T15:37:10.095Z,2.38
2022-07-26T15:41:13.655Z,1.95
2022-07-26T15:45:15.436Z,1.02
2022-07-26T15:49:18.061Z,1.65
2022-07-26T15:53:19.845Z,4.55
2022-07-26T15:57:21.631Z,2.33
2022-07-26T16:01:23.386Z,1.80
2022-07-26T16:05:25.189Z,1.50
2022-07-26T16:09:26.863Z,3.20
2022-07-26T16:13:28.543Z,0.75
2022-07-26T16:17:30.059Z,2.00
2022-07-26T16:21:32.067Z,2.38
2022-07-26T16:25:33.505Z,0.90
2022-07-26T16:29:35.080Z,1.63
2022-07-26T16:33:36.706Z,3.22
2022-07-26T16:37:49.476Z,2.03
2022-07-26T16:41:51.310Z,1.65
2022-07-26T16:45:52.938Z,1.13
2022-07-26T16:49:54.485Z,0.60
2022-07-26T16:53:55.987Z,0.93
2022-07-26T16:57:57.588Z,0.90
2022-07-26T17:02:02.161Z,2.13
2022-07-26T17:06:06.867Z,2.45
2022-07-26T17:10:09.842Z,1.20
2022-07-26T17:14:11.553Z,3.40
2022-07-26T17:18:13.130Z,0.95
2022-07-26T17:22:14.829Z,3.03
2022-07-26T17:26:18.045Z,1.45
2022-07-26T17:30:19.613Z,2.22
2022-07-26T17:34:21.219Z,1.52
2022-07-26T17:38:22.740Z,0.85
2022-07-26T17:42:24.917Z,4.05
2022-07-26T17:46:26.428Z,2.40
2022-07-26T17:50:43.434Z,2.40
2022-07-26T17:54:44.963Z,1.67
2022-07-26T17:58:46.448Z,1.05
2022-07-26T18:02:48.490Z,1.40
2022-07-26T18:06:50.263Z,1.13
2022-07-26T18:10:51.743Z,2.03
2022-07-26T18:14:53.216Z,3.15
2022-07-26T18:18:57.651Z,2.55
2022-07-26T18:22:59.510Z,1.60
2022-07-26T18:27:01.015Z,1.65
2022-07-26T18:31:02.656Z,2.33
2022-07-26T18:35:05.916Z,1.38
2022-07-26T18:39:07.655Z,4.32
2022-07-26T18:43:09.247Z,1.00
2022-07-26T18:47:10.783Z,0.80
2022-07-26T18:51:12.275Z,2.22
2022-07-26T18:55:15.240Z,2.22
2022-07-26T18:59:16.688Z,1.23
2022-07-26T19:03:19.686Z,1.83
2022-07-26T19:07:21.191Z,2.78
2022-07-26T19:11:22.712Z,3.25
2022-07-26T19:15:24.225Z,2.35
2022-07-26T19:19:25.707Z,2.42
2022-07-26T19:23:27.272Z,2.00
2022-07-26T19:27:28.981Z,2.33
2022-07-26T19:31:30.568Z,2.60
2022-07-26T19:35:32.136Z,2.65
2022-07-26T19:39:33.762Z,1.40
2022-07-26T19:43:35.730Z,2.10
2022-07-26T19:47:37.728Z,2.10
2022-07-26T19:51:39.635Z,2.13
2022-07-26T19:55:42.481Z,5.70
2022-07-26T19:59:44.259Z,2.80
2022-07-26T20:03:45.738Z,3.53
2022-07-26T20:07:48.902Z,4.40
2022-07-26T20:11:51.053Z,2.10
2022-07-26T20:15:52.674Z,2.20
2022-07-26T20:19:54.203Z,1.80
2022-07-26T20:23:55.627Z,1.33
2022-07-26T20:27:57.076Z,2.80
2022-07-26T20:31:58.665Z,3.03
2022-07-26T20:36:01.319Z,2.05
2022-07-26T20:40:03.704Z,7.35
2022-07-26T20:44:05.461Z,3.22
2022-07-26T20:48:07.429Z,2.13
2022-07-26T20:52:09.069Z,3.05
2022-07-26T20:56:10.559Z,4.85
2022-07-26T21:00:12.673Z,3.35
2022-07-26T21:04:14.237Z,1.80
2022-07-26T21:08:16.064Z,9.15
2022-07-26T21:12:17.646Z,3.67
2022-07-26T21:16:19.252Z,4.60
2022-07-26T21:20:21.455Z,4.38
2022-07-26T21:24:22.974Z,3.17
2022-07-26T21:28:24.563Z,3.33
2022-07-26T21:32:31.155Z,3.33
2022-07-26T21:36:34.150Z,3.47
2022-07-26T21:40:35.730Z,2.03
2022-07-26T21:44:37.204Z,4.25
2022-07-26T21:48:38.777Z,5.07
2022-07-26T21:52:40.712Z,5.68
2022-07-26T21:56:42.154Z,3.92
2022-07-26T22:00:43.853Z,5.15
2022-07-26T22:04:45.579Z,2.83
2022-07-26T22:08:47.104Z,3.53
2022-07-26T22:12:48.622Z,6.38
2022-07-26T22:16:50.217Z,3.83
2022-07-26T22:20:52.153Z,3.38
2022-07-26T22:24:53.615Z,4.50
2022-07-26T22:28:55.138Z,3.00
2022-07-26T22:37:01.833Z,6.53
2022-07-26T22:41:03.341Z,3.58
2022-07-26T22:45:09.912Z,3.10
2022-07-26T22:49:11.951Z,3.35
2022-07-26T22:53:16.655Z,4.43
2022-07-26T22:57:18.142Z,3.38
2022-07-26T23:01:19.684Z,4.03
2022-07-26T23:05:21.230Z,1.42
2022-07-26T23:09:27.082Z,2.10
2022-07-26T23:13:28.530Z,4.57
2022-07-26T23:17:30.078Z,3.13
2022-07-26T23:21:31.540Z,6.78
2022-07-26T23:25:32.972Z,4.95
2022-07-26T23:29:34.644Z,3.08
2022-07-26T23:33:51.731Z,3.65
2022-07-26T23:37:55.073Z,8.43
2022-07-26T23:41:56.596Z,5.32
2022-07-26T23:45:58.046Z,5.90
2022-07-26T23:49:59.506Z,4.85
2022-07-26T23:54:01.043Z,2.70
2022-07-26T23:58:02.482Z,2.60
